Time;durP1;ratioP1;P1;durP2;ratioP2;P2;SDS_P1;SDS_P2;PMS_P1;PMS_P2;Temp;Humidity;BMP_temperature;BMP_pressure;BME280_temperature;BME280_humidity;BME280_pressure;Samples;Min_cycle;Max_cycle;Signal;HPM_P1;HPM_P2
2021/12/21 05:01:01;;;;;;;19.17;7.60;;;-2.80;99.70;;;;;;4934467;29;20252;-65
2021/12/21 05:03:28;;;;;;;15.27;7.23;;;-2.90;99.70;;;;;;4934725;29;20721;-65
2021/12/21 05:05:54;;;;;;;17.07;7.43;;;-2.90;99.70;;;;;;4934399;29;20449;-64
2021/12/21 05:08:24;;;;;;;17.63;7.57;;;-2.90;99.70;;;;;;4934698;29;20449;-63
2021/12/21 05:10:54;;;;;;;21.40;7.10;;;-3.00;99.70;;;;;;4934855;29;20864;-64
2021/12/21 05:13:23;;;;;;;16.37;6.70;;;-3.00;99.70;;;;;;4934031;29;20989;-60
2021/12/21 05:15:50;;;;;;;17.13;6.60;;;-3.00;99.70;;;;;;4934257;29;20460;-63
2021/12/21 05:18:18;;;;;;;17.73;7.30;;;-2.90;99.70;;;;;;4934535;29;21087;-62
2021/12/21 05:20:45;;;;;;;21.50;7.83;;;-3.00;99.70;;;;;;4934573;29;20992;-65
2021/12/21 05:23:13;;;;;;;23.70;8.70;;;-3.10;99.70;;;;;;4934236;29;20892;-62
2021/12/21 05:25:41;;;;;;;21.80;8.13;;;-3.10;99.70;;;;;;4933810;29;20491;-64
2021/12/21 05:28:09;;;;;;;19.70;8.67;;;-3.10;99.70;;;;;;4934356;29;20449;-63
2021/12/21 05:30:36;;;;;;;17.23;7.50;;;-3.10;99.70;;;;;;4934297;29;20875;-66
2021/12/21 05:33:04;;;;;;;21.90;7.73;;;-3.20;99.70;;;;;;4926587;29;20473;-63
2021/12/21 05:35:33;;;;;;;19.57;7.40;;;-3.20;99.70;;;;;;4932826;29;20450;-62
2021/12/21 05:38:04;;;;;;;15.57;6.87;;;-3.00;99.70;;;;;;4934078;29;20453;-64
2021/12/21 05:40:34;;;;;;;19.73;7.50;;;-3.10;99.70;;;;;;4926369;29;20468;-63
2021/12/21 05:43:02;;;;;;;21.33;8.40;;;-3.20;99.70;;;;;;4925803;29;20944;-60
2021/12/21 05:45:28;;;;;;;19.97;8.40;;;-3.20;99.70;;;;;;4923773;29;20480;-65
2021/12/21 05:47:55;;;;;;;24.63;7.80;;;-3.20;99.70;;;;;;4926721;29;20529;-63
2021/12/21 05:50:22;;;;;;;30.43;10.00;;;-3.40;99.70;;;;;;4927143;29;21137;-63
2021/12/21 05:52:51;;;;;;;27.80;10.97;;;-3.40;99.70;;;;;;4931603;29;20484;-64
2021/12/21 05:55:20;;;;;;;32.43;11.53;;;-3.30;99.70;;;;;;4928048;29;20872;-64
2021/12/21 05:57:48;;;;;;;35.90;14.90;;;-3.30;99.70;;;;;;4923991;29;20469;-63
2021/12/21 06:00:17;;;;;;;35.43;15.30;;;-3.30;99.70;;;;;;4924111;29;20449;-62
2021/12/21 06:02:44;;;;;;;35.80;16.03;;;-3.20;99.70;;;;;;4928163;29;20469;-64
2021/12/21 06:05:11;;;;;;;42.93;15.97;;;-3.30;99.70;;;;;;4932713;29;20452;-63
2021/12/21 06:07:39;;;;;;;32.10;13.10;;;-3.30;99.70;;;;;;4933669;29;20461;-63
2021/12/21 06:10:13;;;;;;;31.70;12.60;;;-3.30;99.70;;;;;;4933871;29;20449;-66
2021/12/21 06:12:57;;;;;;;27.57;11.63;;;-3.40;99.70;;;;;;4933235;29;20451;-61
2021/12/21 06:15:33;;;;;;;29.33;10.47;;;-3.40;99.70;;;;;;4931624;29;20460;-65
2021/12/21 06:24:30;;;;;;;23.00;9.80;;;-3.30;99.70;;;;;;4933491;29;20448;-67
2021/12/21 06:26:41;;;;;;;25.03;10.93;;;-3.30;99.70;;;;;;4933602;29;20949;-62
2021/12/21 06:29:08;;;;;;;27.47;11.80;;;-3.30;99.70;;;;;;4933683;29;20539;-66
2021/12/21 06:31:35;;;;;;;28.70;10.47;;;-3.30;99.70;;;;;;4934947;29;20464;-64
2021/12/21 06:34:02;;;;;;;28.43;10.40;;;-3.30;99.70;;;;;;4937620;29;20476;-63
2021/12/21 06:36:29;;;;;;;22.73;10.30;;;-3.40;99.70;;;;;;4937089;29;20485;-62
2021/12/21 06:38:56;;;;;;;27.53;11.70;;;-3.40;99.70;;;;;;4937461;29;20803;-64
2021/12/21 06:41:23;;;;;;;32.40;11.17;;;-3.50;99.70;;;;;;4936168;29;20488;-65
2021/12/21 06:43:52;;;;;;;25.40;10.53;;;-3.40;99.70;;;;;;4935275;29;20473;-68
2021/12/21 06:46:42;;;;;;;28.73;10.63;;;-3.40;99.70;;;;;;4935224;29;20452;-62
2021/12/21 06:51:51;;;;;;;26.70;11.30;;;-3.50;99.70;;;;;;4935679;29;20428;-68
2021/12/21 06:54:19;;;;;;;31.93;10.60;;;-3.50;99.70;;;;;;4934471;29;20481;-66
2021/12/21 06:56:46;;;;;;;30.53;10.20;;;-3.50;99.70;;;;;;4935776;29;20457;-64
2021/12/21 06:59:14;;;;;;;30.03;9.70;;;-3.50;99.70;;;;;;4936969;29;20449;-63
2021/12/21 07:01:41;;;;;;;23.07;8.43;;;-3.60;99.70;;;;;;4937205;29;21394;-60
2021/12/21 07:04:09;;;;;;;23.97;8.53;;;-3.60;99.70;;;;;;4936719;29;20483;-61
2021/12/21 07:06:38;;;;;;;19.13;8.20;;;-3.50;99.70;;;;;;4936581;29;20450;-61
2021/12/21 07:09:12;;;;;;;16.93;8.60;;;-3.60;99.70;;;;;;4936889;29;20826;-61
2021/12/21 07:11:43;;;;;;;19.07;8.67;;;-3.60;99.70;;;;;;4937001;29;20869;-61
2021/12/21 07:19:41;;;;;;;18.67;8.60;;;-3.60;99.70;;;;;;4936778;29;20428;-60
2021/12/21 07:22:08;;;;;;;19.53;8.90;;;-3.60;99.70;;;;;;4936440;29;20493;-64
2021/12/21 07:24:35;;;;;;;22.80;8.30;;;-3.50;99.70;;;;;;4936057;29;20465;-61
2021/12/21 07:27:02;;;;;;;18.70;8.57;;;-3.50;99.70;;;;;;4936551;29;20662;-63
2021/12/21 07:29:29;;;;;;;22.27;7.80;;;-3.60;99.70;;;;;;4936334;29;20523;-64
2021/12/21 07:31:57;;;;;;;19.40;8.63;;;-3.60;99.70;;;;;;4929106;29;20470;-64
2021/12/21 07:34:24;;;;;;;22.93;9.03;;;-3.60;99.70;;;;;;4936917;29;20473;-62
2021/12/21 07:36:51;;;;;;;22.90;8.80;;;-3.60;99.70;;;;;;4938610;29;20453;-61
2021/12/21 07:39:19;;;;;;;17.73;8.13;;;-3.60;99.70;;;;;;4937333;29;20449;-64
2021/12/21 07:41:46;;;;;;;19.03;9.23;;;-3.50;99.70;;;;;;4938383;29;21459;-63
2021/12/21 07:44:14;;;;;;;20.53;8.50;;;-3.40;99.70;;;;;;4935750;29;20477;-63
2021/12/21 07:46:41;;;;;;;21.67;9.40;;;-3.50;99.70;;;;;;4938383;29;20507;-64
2021/12/21 07:49:10;;;;;;;23.03;8.50;;;-3.50;99.70;;;;;;4937066;29;20960;-64
2021/12/21 07:51:37;;;;;;;23.93;8.83;;;-3.50;99.70;;;;;;4938291;29;20503;-64
2021/12/21 07:54:04;;;;;;;22.20;8.33;;;-3.50;99.70;;;;;;4930405;29;20485;-67
2021/12/21 07:56:31;;;;;;;19.37;8.43;;;-3.50;99.70;;;;;;4934011;29;20456;-64
2021/12/21 07:58:58;;;;;;;28.97;9.33;;;-3.50;99.70;;;;;;4937063;29;20450;-61
2021/12/21 08:01:25;;;;;;;22.83;9.00;;;-3.40;99.70;;;;;;4938209;29;20489;-64
2021/12/21 08:03:53;;;;;;;23.63;9.00;;;-3.40;99.70;;;;;;4925785;29;21018;-60
2021/12/21 08:06:21;;;;;;;21.50;8.57;;;-3.40;99.70;;;;;;4935550;29;20949;-64
2021/12/21 08:08:49;;;;;;;19.90;8.80;;;-3.20;99.70;;;;;;4937077;29;20824;-63
2021/12/21 08:11:28;;;;;;;21.83;8.53;;;-3.20;99.70;;;;;;4936702;29;20457;-64
2021/12/21 08:13:56;;;;;;;21.13;8.77;;;-3.10;99.70;;;;;;4925863;29;20988;-64
2021/12/21 08:16:23;;;;;;;25.07;9.47;;;-3.10;99.70;;;;;;4937000;29;20836;-63
2021/12/21 08:18:50;;;;;;;26.90;11.23;;;-3.10;99.70;;;;;;4936889;29;20486;-63
2021/12/21 08:21:18;;;;;;;25.40;10.67;;;-3.10;99.70;;;;;;4917702;29;20461;-63
2021/12/21 08:23:46;;;;;;;23.80;10.30;;;-3.00;99.70;;;;;;4914673;29;20525;-64
2021/12/21 08:26:13;;;;;;;26.23;11.23;;;-2.90;99.70;;;;;;4914579;29;20454;-62
2021/12/21 08:28:40;;;;;;;23.03;9.40;;;-2.90;99.70;;;;;;4916011;29;20446;-63
2021/12/21 08:31:10;;;;;;;23.80;9.97;;;-2.90;99.70;;;;;;4915397;29;20474;-60
2021/12/21 08:33:36;;;;;;;25.97;9.77;;;-2.80;99.70;;;;;;4932014;29;20992;-62
2021/12/21 08:36:04;;;;;;;26.10;9.70;;;-2.90;99.70;;;;;;4936176;29;20453;-64
2021/12/21 08:38:31;;;;;;;22.50;9.50;;;-2.80;99.70;;;;;;4936375;29;20479;-63
2021/12/21 08:41:00;;;;;;;23.03;8.53;;;-2.80;99.70;;;;;;4950472;29;20452;-62
2021/12/21 09:02:20;;;;;;;22.17;9.60;;;-2.30;99.70;;;;;;5027028;28;20808;-63
2021/12/21 09:04:47;;;;;;;23.80;10.13;;;-2.40;99.70;;;;;;4987404;28;1913849;-62
2021/12/21 09:07:14;;;;;;;22.73;10.10;;;-2.40;99.70;;;;;;5074116;28;20192;-63
2021/12/21 09:09:40;;;;;;;22.70;9.13;;;-2.40;99.70;;;;;;5040973;28;20461;-64
2021/12/21 09:12:08;;;;;;;24.80;10.00;;;-2.40;99.70;;;;;;5032590;28;21272;-62
2021/12/21 09:14:35;;;;;;;20.60;9.20;;;-2.40;99.70;;;;;;5063636;22;20768;-63
2021/12/21 09:17:02;;;;;;;25.67;10.70;;;-2.40;99.70;;;;;;5065240;28;20540;-65
2021/12/21 09:19:30;;;;;;;32.50;10.57;;;-2.10;99.70;;;;;;5064276;28;20568;-61
2021/12/21 09:21:57;;;;;;;27.40;10.33;;;-2.20;99.70;;;;;;5065461;28;20487;-63
2021/12/21 09:24:24;;;;;;;24.30;9.40;;;-2.20;99.70;;;;;;5065558;28;20467;-63
2021/12/21 09:26:50;;;;;;;22.30;10.30;;;-2.10;99.70;;;;;;5049842;28;20455;-63
2021/12/21 09:29:17;;;;;;;24.63;9.70;;;-2.10;99.70;;;;;;5047941;28;20451;-63
2021/12/21 09:31:44;;;;;;;23.43;10.43;;;-2.10;99.70;;;;;;5050052;28;20452;-62
2021/12/21 09:34:10;;;;;;;24.70;10.57;;;-2.10;99.70;;;;;;5048407;28;20479;-62
2021/12/21 09:36:38;;;;;;;21.37;10.10;;;-2.00;99.70;;;;;;5049625;28;22008;-63
2021/12/21 09:39:05;;;;;;;24.60;10.20;;;-2.00;99.70;;;;;;5048007;28;20474;-64
2021/12/21 09:41:32;;;;;;;27.40;10.70;;;-1.90;99.70;;;;;;5049680;28;20447;-61
2021/12/21 09:44:01;;;;;;;25.33;10.60;;;-2.00;99.70;;;;;;5048233;28;20801;-63
2021/12/21 09:46:28;;;;;;;24.20;10.80;;;-1.90;99.70;;;;;;5049510;28;20448;-62
2021/12/21 09:48:55;;;;;;;24.23;10.00;;;-1.90;99.70;;;;;;5047791;28;20459;-61
2021/12/21 09:51:21;;;;;;;25.03;9.60;;;-1.70;99.70;;;;;;5049557;28;20848;-66
2021/12/21 09:53:50;;;;;;;20.90;9.63;;;-1.60;99.70;;;;;;5048320;28;20468;-65
2021/12/21 09:56:19;;;;;;;20.93;10.70;;;-1.10;99.70;;;;;;5049451;28;20490;-62
2021/12/21 09:58:45;;;;;;;20.07;9.77;;;-1.20;99.70;;;;;;5036438;28;20452;-63
2021/12/21 10:01:12;;;;;;;32.27;10.70;;;-1.40;99.70;;;;;;5035104;28;20869;-67
2021/12/21 10:03:39;;;;;;;25.43;10.80;;;-1.30;99.70;;;;;;5040792;28;20505;-62
2021/12/21 10:06:09;;;;;;;27.00;11.07;;;-1.30;99.70;;;;;;5046225;28;20443;-63
2021/12/21 10:08:36;;;;;;;22.63;10.03;;;-1.30;99.70;;;;;;5050807;28;20478;-64
2021/12/21 10:11:06;;;;;;;22.30;10.67;;;-1.30;99.70;;;;;;5051968;28;20505;-62
2021/12/21 10:13:36;;;;;;;24.80;11.03;;;-1.30;99.70;;;;;;5036047;28;20452;-63
2021/12/21 10:16:05;;;;;;;20.17;10.80;;;-1.30;99.70;;;;;;5053378;28;20443;-63
2021/12/21 10:18:35;;;;;;;29.57;10.83;;;-1.30;99.70;;;;;;5052356;28;20447;-64
2021/12/21 10:21:04;;;;;;;27.53;10.87;;;-1.30;99.70;;;;;;5053318;28;20830;-64
2021/12/21 10:23:32;;;;;;;28.60;11.50;;;-1.30;99.70;;;;;;5053016;28;20824;-64
2021/12/21 10:26:01;;;;;;;23.70;11.03;;;-1.20;99.70;;;;;;5053030;28;20976;-65
2021/12/21 10:28:33;;;;;;;31.70;12.57;;;-1.10;99.70;;;;;;5052491;28;20501;-63
2021/12/21 10:31:01;;;;;;;34.90;13.33;;;-1.00;99.70;;;;;;5052889;28;20443;-65
2021/12/21 10:33:29;;;;;;;22.77;10.47;;;-0.90;99.70;;;;;;5052747;28;20455;-64
2021/12/21 10:35:57;;;;;;;31.40;11.83;;;-0.80;99.70;;;;;;5052805;28;20443;-64
2021/12/21 10:38:28;;;;;;;21.10;10.33;;;-0.90;99.70;;;;;;5052184;28;20448;-64
2021/12/21 10:40:58;;;;;;;21.30;9.73;;;-0.90;99.70;;;;;;5052811;28;20447;-59
2021/12/21 10:43:29;;;;;;;23.30;10.30;;;-0.60;99.70;;;;;;5052724;28;20459;-62
2021/12/21 10:45:57;;;;;;;23.07;9.50;;;-0.60;99.70;;;;;;5052723;28;20447;-60
2021/12/21 10:48:24;;;;;;;28.23;10.67;;;-0.30;99.70;;;;;;5052043;28;20500;-59
2021/12/21 10:50:52;;;;;;;23.30;10.00;;;-0.30;99.70;;;;;;5052684;28;20443;-60
2021/12/21 10:53:21;;;;;;;22.27;10.37;;;-0.40;99.70;;;;;;5052480;28;20891;-64
2021/12/21 10:55:58;;;;;;;21.70;10.17;;;-0.40;99.70;;;;;;5052372;28;20474;-66
2021/12/21 10:58:28;;;;;;;19.53;9.00;;;-0.30;99.70;;;;;;5051398;28;20557;-65
2021/12/21 11:00:58;;;;;;;22.47;10.23;;;-0.20;99.70;;;;;;5052051;28;20455;-64
2021/12/21 11:03:31;;;;;;;19.77;9.93;;;-0.20;99.70;;;;;;5051169;28;20517;-64
2021/12/21 11:06:08;;;;;;;20.43;9.97;;;-0.20;99.70;;;;;;5045170;28;20452;-64
2021/12/21 11:08:38;;;;;;;20.20;10.00;;;-0.10;99.70;;;;;;5049728;28;20462;-65
2021/12/21 11:11:10;;;;;;;26.40;10.60;;;-0.10;99.70;;;;;;5051250;28;20452;-67
2021/12/21 11:13:36;;;;;;;20.97;9.90;;;0.00;99.70;;;;;;5051094;28;20443;-63
2021/12/21 11:16:07;;;;;;;23.00;9.30;;;-0.10;99.70;;;;;;5052134;28;20451;-65
2021/12/21 11:18:37;;;;;;;22.83;10.90;;;-0.10;99.70;;;;;;5051627;28;20448;-64
2021/12/21 11:21:09;;;;;;;19.77;10.10;;;-0.10;99.70;;;;;;5051943;28;20956;-64
2021/12/21 11:23:36;;;;;;;25.17;11.03;;;-0.20;99.70;;;;;;5051153;28;20451;-63
2021/12/21 11:26:06;;;;;;;23.33;10.70;;;0.10;99.70;;;;;;5051810;28;20455;-62
2021/12/21 11:28:36;;;;;;;21.90;11.20;;;0.10;99.70;;;;;;5051493;28;20440;-64
2021/12/21 11:31:07;;;;;;;31.90;15.57;;;0.00;99.70;;;;;;5051836;28;20505;-63
2021/12/21 11:33:40;;;;;;;28.60;12.60;;;0.00;99.70;;;;;;5050772;28;20455;-64
2021/12/21 11:38:52;;;;;;;24.90;11.63;;;0.10;99.70;;;;;;5041062;28;20535;-68
2021/12/21 11:41:20;;;;;;;25.33;12.97;;;0.10;99.70;;;;;;5051316;28;20501;-63
2021/12/21 11:43:57;;;;;;;29.53;13.50;;;0.10;99.70;;;;;;5051591;28;20451;-65
2021/12/21 11:46:36;;;;;;;35.70;18.03;;;0.20;99.70;;;;;;5051274;28;20443;-64
2021/12/21 11:49:10;;;;;;;30.47;13.00;;;0.30;99.70;;;;;;5051181;28;20435;-64
2021/12/21 11:51:37;;;;;;;26.17;12.77;;;0.40;99.70;;;;;;5051237;28;20822;-67
2021/12/21 11:54:15;;;;;;;29.77;12.27;;;0.50;99.70;;;;;;5051485;28;20471;-64
2021/12/21 11:56:42;;;;;;;25.83;11.70;;;0.60;99.70;;;;;;5051048;28;20278;-61
2021/12/21 11:59:09;;;;;;;29.27;15.50;;;0.50;99.70;;;;;;5050834;28;20474;-62
2021/12/21 12:01:44;;;;;;;28.53;11.70;;;0.70;99.70;;;;;;5043796;28;20455;-65
2021/12/21 12:04:12;;;;;;;31.43;11.97;;;0.70;99.70;;;;;;5051045;28;20472;-63
2021/12/21 12:06:47;;;;;;;24.73;11.27;;;0.80;99.70;;;;;;5050865;28;20582;-65
2021/12/21 12:09:24;;;;;;;25.13;11.90;;;0.90;99.70;;;;;;5050853;28;20451;-64
2021/12/21 12:11:53;;;;;;;25.23;11.80;;;0.90;99.70;;;;;;5050923;28;20458;-62
2021/12/21 12:14:21;;;;;;;23.77;11.07;;;0.90;99.70;;;;;;5051060;28;20475;-61
2021/12/21 12:16:53;;;;;;;21.83;9.70;;;1.10;99.70;;;;;;5050792;28;21014;-62
2021/12/21 12:19:22;;;;;;;24.87;10.60;;;1.10;99.70;;;;;;5050864;28;20478;-64
2021/12/21 12:21:56;;;;;;;23.77;10.80;;;1.10;99.70;;;;;;5050541;28;20452;-64
2021/12/21 12:24:25;;;;;;;29.90;15.97;;;1.20;99.70;;;;;;5045694;28;20479;-65
2021/12/21 12:27:01;;;;;;;27.07;14.67;;;1.20;99.70;;;;;;5050834;28;20443;-61
2021/12/21 12:29:28;;;;;;;26.37;12.17;;;1.20;99.70;;;;;;5050466;28;20569;-64
2021/12/21 12:32:02;;;;;;;23.90;11.50;;;1.00;99.70;;;;;;5050896;28;20450;-65
2021/12/21 12:34:32;;;;;;;23.57;10.80;;;1.00;99.70;;;;;;5048125;28;20464;-61
2021/12/21 12:36:59;;;;;;;79.70;44.80;;;1.10;99.70;;;;;;5050414;28;20988;-65
2021/12/21 12:39:29;;;;;;;33.07;19.60;;;1.10;99.70;;;;;;5049437;28;20838;-64
2021/12/21 12:42:02;;;;;;;31.43;15.90;;;1.10;99.70;;;;;;5050509;28;20840;-64
2021/12/21 12:44:29;;;;;;;29.17;17.40;;;1.10;99.70;;;;;;5050200;28;20923;-64
2021/12/21 12:47:02;;;;;;;33.70;19.13;;;1.20;99.70;;;;;;5050585;28;20721;-65
2021/12/21 12:49:33;;;;;;;27.97;14.50;;;1.30;99.70;;;;;;5049642;28;20539;-65
2021/12/21 12:52:06;;;;;;;25.77;11.50;;;1.30;99.70;;;;;;5050593;28;20452;-62
2021/12/21 12:54:45;;;;;;;21.50;11.07;;;1.60;99.70;;;;;;5050742;28;21043;-61
2021/12/21 12:57:12;;;;;;;28.13;12.50;;;1.70;99.70;;;;;;5050170;28;20479;-61
2021/12/21 12:59:49;;;;;;;25.40;12.50;;;1.70;99.70;;;;;;5049814;28;20451;-62
2021/12/21 13:02:16;;;;;;;23.90;11.30;;;1.70;99.70;;;;;;5048646;28;20826;-63
2021/12/21 13:04:44;;;;;;;23.27;11.10;;;1.70;99.70;;;;;;5050626;28;20460;-60
2021/12/21 13:07:11;;;;;;;27.67;10.83;;;1.60;99.70;;;;;;5050009;28;20435;-58
2021/12/21 13:09:37;;;;;;;27.10;11.73;;;1.60;99.70;;;;;;5048561;28;20453;-62
2021/12/21 13:12:10;;;;;;;21.57;9.63;;;1.50;99.70;;;;;;5050373;28;20860;-63
2021/12/21 13:14:37;;;;;;;18.70;9.13;;;1.60;99.70;;;;;;5032088;28;20566;-59
2021/12/21 13:17:04;;;;;;;19.37;8.97;;;1.90;99.70;;;;;;5032317;28;20481;-61
2021/12/21 13:19:32;;;;;;;19.90;9.27;;;1.80;99.70;;;;;;5032092;28;20472;-62
2021/12/21 13:22:01;;;;;;;17.73;8.40;;;2.00;99.70;;;;;;5031859;28;20453;-63
2021/12/21 13:24:33;;;;;;;16.30;7.90;;;2.00;99.70;;;;;;5047915;28;20471;-63
2021/12/21 13:27:02;;;;;;;16.03;7.60;;;2.10;99.70;;;;;;5039797;28;20470;-62
2021/12/21 13:29:31;;;;;;;17.97;7.57;;;2.00;99.70;;;;;;5040624;28;20840;-62
2021/12/21 13:31:59;;;;;;;15.07;6.90;;;1.90;99.70;;;;;;5036676;28;20967;-60
2021/12/21 13:34:28;;;;;;;26.93;8.13;;;1.70;99.70;;;;;;5044046;28;20471;-62
2021/12/21 13:36:57;;;;;;;14.20;6.90;;;1.50;99.70;;;;;;5041415;28;20448;-66
2021/12/21 13:39:27;;;;;;;16.77;7.20;;;1.40;99.70;;;;;;5044504;28;20448;-61
2021/12/21 13:41:56;;;;;;;12.70;6.80;;;1.40;99.70;;;;;;5039320;28;20463;-63
2021/12/21 13:44:24;;;;;;;16.57;6.53;;;1.40;99.70;;;;;;5048660;28;20487;-64
2021/12/21 13:46:52;;;;;;;15.17;6.77;;;1.30;99.70;;;;;;5042285;28;20829;-65
2021/12/21 13:49:19;;;;;;;15.67;6.67;;;1.30;99.70;;;;;;5044242;28;20444;-64
2021/12/21 13:51:50;;;;;;;10.27;5.57;;;1.30;99.70;;;;;;5042333;28;20447;-66
2021/12/21 13:54:18;;;;;;;12.80;5.93;;;1.40;99.70;;;;;;5047998;28;20837;-60
2021/12/21 13:56:47;;;;;;;13.73;5.93;;;1.60;99.70;;;;;;5042799;28;20496;-63
2021/12/21 13:59:18;;;;;;;18.80;6.50;;;1.40;99.70;;;;;;5040486;28;20487;-63
2021/12/21 14:01:48;;;;;;;13.37;6.87;;;1.40;99.70;;;;;;5048014;28;20456;-63
2021/12/21 14:04:25;;;;;;;15.50;6.40;;;1.20;99.70;;;;;;5046730;28;20480;-62
2021/12/21 14:06:53;;;;;;;10.60;5.30;;;1.30;99.70;;;;;;5044601;28;20492;-62
2021/12/21 14:09:21;;;;;;;11.83;5.40;;;1.50;99.70;;;;;;5044187;28;20445;-64
2021/12/21 14:11:55;;;;;;;11.57;5.20;;;1.70;99.70;;;;;;5049101;28;20448;-63
2021/12/21 14:14:22;;;;;;;12.73;5.20;;;1.70;99.70;;;;;;5050048;28;20533;-63
2021/12/21 14:16:50;;;;;;;11.60;4.87;;;1.70;99.70;;;;;;5041787;28;20953;-63
2021/12/21 14:19:19;;;;;;;9.13;5.70;;;1.80;99.70;;;;;;5035808;28;20476;-65
2021/12/21 14:21:47;;;;;;;11.70;5.13;;;1.90;99.70;;;;;;5042376;28;20999;-64
2021/12/21 14:24:16;;;;;;;12.20;5.27;;;1.70;99.70;;;;;;5037846;28;20471;-66
2021/12/21 14:26:50;;;;;;;10.20;5.00;;;1.90;99.70;;;;;;5047873;28;20449;-63
2021/12/21 14:29:19;;;;;;;11.50;5.30;;;1.80;99.70;;;;;;5038268;28;20532;-64
2021/12/21 14:31:50;;;;;;;10.00;5.07;;;1.80;99.70;;;;;;5034759;28;20461;-63
2021/12/21 14:34:23;;;;;;;10.03;4.90;;;1.70;99.70;;;;;;5037885;28;21011;-63
2021/12/21 14:36:51;;;;;;;10.80;4.77;;;1.70;99.70;;;;;;5034713;28;20511;-63
2021/12/21 14:39:20;;;;;;;9.87;4.73;;;1.80;99.70;;;;;;5036758;28;20481;-63
2021/12/21 14:41:51;;;;;;;10.13;5.07;;;1.70;99.70;;;;;;5034566;28;20444;-64
2021/12/21 14:44:19;;;;;;;9.93;4.57;;;1.90;99.70;;;;;;5037607;28;20469;-64
2021/12/21 14:46:55;;;;;;;7.80;4.23;;;1.90;99.70;;;;;;5043021;28;20460;-60
2021/12/21 14:49:28;;;;;;;13.00;5.10;;;1.90;99.70;;;;;;5040460;28;20434;-66
2021/12/21 14:51:57;;;;;;;13.17;4.90;;;1.90;99.70;;;;;;5049896;28;20471;-63
2021/12/21 14:54:27;;;;;;;12.27;5.00;;;1.90;99.70;;;;;;5048053;28;20475;-64
2021/12/21 14:57:03;;;;;;;17.70;5.30;;;1.80;99.70;;;;;;5050939;28;20839;-62
2021/12/21 14:59:32;;;;;;;11.13;5.47;;;1.90;99.70;;;;;;5046354;28;20488;-67
2021/12/21 15:02:04;;;;;;;12.37;5.60;;;1.70;99.70;;;;;;5048282;28;20450;-65
2021/12/21 15:04:32;;;;;;;11.80;5.63;;;1.30;99.70;;;;;;5047142;28;20559;-63
2021/12/21 15:06:59;;;;;;;14.33;5.43;;;1.30;99.70;;;;;;5047690;28;20546;-63
2021/12/21 15:09:25;;;;;;;13.50;5.70;;;1.20;99.70;;;;;;5048260;28;20903;-65
2021/12/21 15:11:56;;;;;;;14.30;5.33;;;1.30;99.70;;;;;;5049317;28;20456;-64
2021/12/21 15:14:24;;;;;;;11.73;5.70;;;1.30;99.70;;;;;;5050133;28;21076;-64
2021/12/21 15:16:51;;;;;;;9.37;5.00;;;1.50;99.70;;;;;;5051175;28;20819;-64
2021/12/21 15:19:18;;;;;;;14.37;5.87;;;1.30;99.70;;;;;;5050821;28;21023;-65
2021/12/21 15:21:45;;;;;;;12.87;5.27;;;1.10;99.70;;;;;;5051104;28;20451;-64
2021/12/21 15:24:12;;;;;;;12.30;5.90;;;1.10;99.70;;;;;;5045096;28;20486;-64
2021/12/21 15:26:39;;;;;;;13.60;6.00;;;0.90;99.70;;;;;;5044813;28;20451;-65
2021/12/21 15:29:07;;;;;;;15.87;6.40;;;0.70;99.70;;;;;;5039563;28;20991;-65
2021/12/21 15:31:34;;;;;;;15.47;5.77;;;0.50;99.70;;;;;;5039941;28;20975;-65
2021/12/21 15:34:01;;;;;;;12.40;5.90;;;0.60;99.70;;;;;;5041818;28;20491;-64
2021/12/21 15:36:28;;;;;;;17.90;6.87;;;0.50;99.70;;;;;;5043725;28;20499;-62
2021/12/21 15:38:55;;;;;;;11.50;5.40;;;0.40;99.70;;;;;;5036835;28;20480;-63
2021/12/21 15:41:23;;;;;;;13.47;5.90;;;0.50;99.70;;;;;;5038738;28;20448;-62
2021/12/21 15:43:50;;;;;;;11.80;5.90;;;0.50;99.70;;;;;;5046709;28;20472;-64
2021/12/21 15:46:20;;;;;;;14.37;6.17;;;0.40;99.70;;;;;;5037820;28;20447;-64
2021/12/21 15:48:47;;;;;;;15.33;6.00;;;0.20;99.70;;;;;;5036661;28;20452;-67
2021/12/21 15:51:14;;;;;;;14.97;6.83;;;0.20;99.70;;;;;;5041454;28;20533;-63
2021/12/21 15:53:42;;;;;;;13.83;6.43;;;0.20;99.70;;;;;;5042807;28;20443;-64
2021/12/21 15:56:10;;;;;;;12.33;5.90;;;0.20;99.70;;;;;;5043168;28;20456;-62
2021/12/21 15:58:37;;;;;;;11.53;5.77;;;0.20;99.70;;;;;;5033289;28;20631;-62
2021/12/21 16:01:05;;;;;;;13.77;6.40;;;0.40;99.70;;;;;;5046494;28;20468;-63
2021/12/21 16:03:33;;;;;;;14.27;5.30;;;0.30;99.70;;;;;;5038011;28;20495;-63
2021/12/21 16:06:00;;;;;;;12.87;6.17;;;0.30;99.70;;;;;;5043182;28;20446;-63
2021/12/21 16:08:27;;;;;;;13.80;5.87;;;0.30;99.70;;;;;;5045015;28;20444;-64
2021/12/21 16:10:54;;;;;;;25.93;7.90;;;0.20;99.70;;;;;;5033525;28;20803;-62
2021/12/21 16:13:20;;;;;;;20.50;7.50;;;0.10;99.70;;;;;;5050281;28;20502;-64
2021/12/21 16:15:47;;;;;;;19.83;7.37;;;0.00;99.70;;;;;;5043685;28;20475;-58
2021/12/21 16:18:14;;;;;;;19.73;6.67;;;-0.10;99.70;;;;;;5046975;28;21063;-60
2021/12/21 16:20:42;;;;;;;18.60;6.90;;;-0.20;99.70;;;;;;5044828;28;20437;-59
2021/12/21 16:23:09;;;;;;;22.03;7.50;;;-0.30;99.70;;;;;;5049211;28;20501;-62
2021/12/21 16:25:37;;;;;;;18.47;8.20;;;-0.20;99.70;;;;;;5045122;28;20987;-60
2021/12/21 16:28:04;;;;;;;16.93;7.60;;;-0.30;99.70;;;;;;5047991;28;20813;-61
2021/12/21 16:30:43;;;;;;;17.90;8.47;;;-0.50;99.70;;;;;;5046586;28;20444;-60
2021/12/21 16:33:10;;;;;;;17.77;8.00;;;-0.50;99.70;;;;;;5047450;28;20444;-61
2021/12/21 16:35:38;;;;;;;20.53;7.97;;;-0.60;99.70;;;;;;5042803;28;20545;-61
2021/12/21 16:38:06;;;;;;;19.10;8.60;;;-0.60;99.70;;;;;;5046633;28;20456;-63
2021/12/21 16:40:33;;;;;;;15.80;7.80;;;-0.60;99.70;;;;;;5045809;28;20455;-62
2021/12/21 16:43:00;;;;;;;16.67;7.60;;;-0.60;99.70;;;;;;5047681;28;20876;-61
2021/12/21 16:45:27;;;;;;;29.60;10.63;;;-0.60;99.70;;;;;;5043393;28;20488;-63
2021/12/21 16:47:54;;;;;;;34.97;10.20;;;-0.60;99.70;;;;;;5044667;28;20859;-61
2021/12/21 16:50:21;;;;;;;15.33;6.70;;;-0.60;99.70;;;;;;5046930;28;20951;-65
2021/12/21 16:52:48;;;;;;;14.60;6.77;;;-0.30;99.70;;;;;;5049028;28;20447;-61
2021/12/21 16:55:16;;;;;;;14.57;7.10;;;0.10;99.70;;;;;;5048540;28;20545;-63
2021/12/21 16:57:43;;;;;;;19.43;8.37;;;0.00;99.70;;;;;;5047604;28;20570;-63
2021/12/21 17:00:11;;;;;;;16.10;6.80;;;-0.20;99.70;;;;;;5044149;28;20479;-59
2021/12/21 17:02:38;;;;;;;19.70;6.80;;;-0.30;99.70;;;;;;5039669;28;20455;-62
2021/12/21 17:05:06;;;;;;;21.67;7.70;;;-0.40;99.70;;;;;;5033354;28;20473;-61
2021/12/21 17:07:32;;;;;;;17.77;7.60;;;-0.40;99.70;;;;;;5044128;28;20441;-62
2021/12/21 17:10:04;;;;;;;21.20;8.63;;;-0.50;99.70;;;;;;5050060;28;20442;-62
2021/12/21 17:12:32;;;;;;;31.63;11.70;;;-0.50;99.70;;;;;;5038181;28;21036;-64
2021/12/21 17:14:59;;;;;;;20.00;8.33;;;-0.50;99.70;;;;;;5035349;28;20472;-65
2021/12/21 17:17:26;;;;;;;32.10;12.90;;;-0.20;99.70;;;;;;5046612;28;20460;-66
2021/12/21 17:19:53;;;;;;;35.97;13.10;;;-0.30;99.70;;;;;;5057671;23;21205;-62
2021/12/21 17:22:21;;;;;;;25.27;10.80;;;-0.30;99.70;;;;;;5032179;28;20456;-63
2021/12/21 17:24:48;;;;;;;25.30;9.17;;;-0.40;99.70;;;;;;5032948;28;20483;-62
2021/12/21 17:27:15;;;;;;;22.13;11.17;;;-0.40;99.70;;;;;;5033209;28;20471;-62
2021/12/21 17:29:44;;;;;;;24.60;11.77;;;-0.30;99.70;;;;;;5026216;28;20615;-64
2021/12/21 17:32:10;;;;;;;24.70;10.37;;;-0.20;99.70;;;;;;5012596;28;20581;-63
2021/12/21 17:34:37;;;;;;;24.00;9.60;;;-0.20;99.70;;;;;;5011701;28;20445;-64
2021/12/21 17:37:05;;;;;;;21.17;9.60;;;-0.20;99.70;;;;;;5011154;28;20449;-61
2021/12/21 17:39:31;;;;;;;20.43;8.80;;;-0.20;99.70;;;;;;5010064;28;21030;-59
2021/12/21 17:41:58;;;;;;;21.10;8.77;;;0.00;99.70;;;;;;5011864;28;20808;-64
2021/12/21 17:44:25;;;;;;;20.10;8.83;;;-0.10;99.70;;;;;;5001050;28;20449;-63
2021/12/21 17:46:53;;;;;;;18.20;8.70;;;-0.20;99.70;;;;;;5011923;28;20464;-64
2021/12/21 17:49:20;;;;;;;21.23;9.70;;;-0.30;99.70;;;;;;5011511;28;20444;-65
2021/12/21 17:51:47;;;;;;;21.83;9.43;;;-0.10;99.70;;;;;;5012547;28;20473;-64
2021/12/21 17:54:14;;;;;;;22.27;10.03;;;0.00;99.70;;;;;;5012608;28;20445;-65
2021/12/21 17:56:41;;;;;;;25.00;10.83;;;0.00;99.70;;;;;;5012379;28;20484;-64
2021/12/21 17:59:08;;;;;;;21.93;10.70;;;-0.30;99.70;;;;;;4997595;28;20489;-63
2021/12/21 18:01:35;;;;;;;24.87;12.30;;;-0.30;99.70;;;;;;5011532;28;20465;-65
2021/12/21 18:04:03;;;;;;;29.87;12.90;;;-0.40;99.70;;;;;;5011013;28;20461;-65
2021/12/21 18:06:29;;;;;;;26.20;12.10;;;-0.40;99.70;;;;;;5012050;28;20449;-63
2021/12/21 18:08:56;;;;;;;26.80;11.90;;;-0.40;99.70;;;;;;5009118;28;20458;-64
2021/12/21 18:11:23;;;;;;;24.90;10.20;;;-0.30;99.70;;;;;;5008083;28;20482;-65
2021/12/21 18:13:49;;;;;;;24.57;11.47;;;-0.40;99.70;;;;;;5008348;28;21183;-65
2021/12/21 18:16:17;;;;;;;28.87;11.83;;;-0.50;99.70;;;;;;5003614;28;20454;-65
2021/12/21 18:18:47;;;;;;;29.73;13.00;;;-0.70;99.70;;;;;;5007324;28;20481;-63